Time;durP1;ratioP1;P1;durP2;ratioP2;P2;SDS_P1;SDS_P2;PMS_P1;PMS_P2;Temp;Humidity;BMP_temperature;BMP_pressure;BME280_temperature;BME280_humidity;BME280_pressure;Samples;Min_cycle;Max_cycle;Signal;HPM_P1;HPM_P2
2022/04/25 04:00:34;;;;;;;4.40;3.85;;;7.10;99.90;;;;;;5880343;23;20867;-71
2022/04/25 04:03:01;;;;;;;5.18;4.55;;;7.10;99.90;;;;;;4988012;28;20204;-69
2022/04/25 04:05:28;;;;;;;7.95;4.50;;;7.10;99.90;;;;;;4992580;28;20234;-70
2022/04/25 04:07:55;;;;;;;6.45;4.45;;;7.10;99.90;;;;;;4993114;28;20581;-70
2022/04/25 04:10:22;;;;;;;4.43;4.07;;;7.10;99.90;;;;;;4992884;28;20216;-70
2022/04/25 04:12:49;;;;;;;7.40;4.50;;;7.10;99.90;;;;;;4994104;28;20212;-71
2022/04/25 04:15:17;;;;;;;7.78;4.70;;;7.10;99.90;;;;;;4994208;28;20204;-69
2022/04/25 04:17:45;;;;;;;7.95;4.88;;;7.10;99.90;;;;;;4993962;28;20227;-68
2022/04/25 04:20:13;;;;;;;6.15;4.82;;;7.10;99.90;;;;;;4993228;28;20238;-71
2022/04/25 04:22:41;;;;;;;4.90;4.50;;;7.20;99.90;;;;;;4993970;28;20300;-69
2022/04/25 04:25:11;;;;;;;6.63;4.82;;;7.20;99.90;;;;;;4993343;28;20259;-70
2022/04/25 04:27:38;;;;;;;6.55;4.80;;;7.10;99.90;;;;;;4994315;28;20208;-69
2022/04/25 04:30:08;;;;;;;6.80;4.90;;;7.20;99.90;;;;;;4992428;28;20222;-69
2022/04/25 04:32:35;;;;;;;7.07;5.15;;;7.10;99.90;;;;;;4992810;28;20259;-71
2022/04/25 04:35:06;;;;;;;5.07;4.60;;;7.20;99.90;;;;;;4992640;28;20288;-68
2022/04/25 04:37:33;;;;;;;4.60;4.20;;;7.20;99.90;;;;;;4992339;28;20223;-69
2022/04/25 04:42:41;;;;;;;5.47;4.93;;;7.20;99.90;;;;;;4991737;28;20287;-69
2022/04/25 04:45:11;;;;;;;5.65;5.25;;;7.10;99.90;;;;;;4990819;28;20250;-67
2022/04/25 04:47:38;;;;;;;12.88;5.45;;;7.20;99.90;;;;;;4991738;28;20199;-69
2022/04/25 04:50:10;;;;;;;5.80;5.22;;;7.20;99.90;;;;;;4990849;28;20243;-69
2022/04/25 04:52:36;;;;;;;5.20;4.70;;;7.30;99.90;;;;;;4989481;28;20219;-69
2022/04/25 04:55:04;;;;;;;4.60;4.25;;;7.30;99.90;;;;;;4991544;28;20622;-68
2022/04/25 04:57:30;;;;;;;6.43;5.38;;;7.30;99.90;;;;;;4991524;28;20223;-68
2022/04/25 04:59:57;;;;;;;5.00;4.57;;;7.30;99.90;;;;;;4990238;28;20254;-69
2022/04/25 05:02:24;;;;;;;5.30;4.72;;;7.40;99.90;;;;;;4990931;28;20267;-69
2022/04/25 05:04:51;;;;;;;8.02;4.55;;;7.40;99.90;;;;;;4991529;28;20216;-68
2022/04/25 05:07:19;;;;;;;6.25;4.68;;;7.40;99.90;;;;;;4991321;28;20281;-69
2022/04/25 05:09:46;;;;;;;5.47;4.60;;;7.40;99.90;;;;;;4991025;28;20208;-70
2022/04/25 05:12:12;;;;;;;5.60;5.10;;;7.40;99.90;;;;;;4992055;28;20228;-69
2022/04/25 05:14:39;;;;;;;5.95;4.88;;;7.40;99.90;;;;;;4991612;28;20611;-68
2022/04/25 05:17:06;;;;;;;6.90;5.00;;;7.40;99.90;;;;;;4990915;28;20210;-69
2022/04/25 05:19:33;;;;;;;5.88;5.25;;;7.50;99.90;;;;;;4991353;28;20314;-68
2022/04/25 05:22:00;;;;;;;5.97;4.60;;;7.50;99.90;;;;;;4992847;28;20238;-68
2022/04/25 05:24:28;;;;;;;5.18;4.68;;;7.50;99.90;;;;;;4991671;28;20211;-68
2022/04/25 05:26:54;;;;;;;6.95;6.22;;;7.50;99.90;;;;;;4991289;28;20207;-69
2022/04/25 05:29:21;;;;;;;5.55;4.45;;;7.50;99.90;;;;;;4991189;28;20216;-69
2022/04/25 05:31:49;;;;;;;7.25;4.70;;;7.50;99.90;;;;;;4990340;28;20236;-70
2022/04/25 05:34:16;;;;;;;6.35;4.53;;;7.50;99.90;;;;;;4991764;28;20223;-70
2022/04/25 05:36:43;;;;;;;4.95;4.55;;;7.50;99.90;;;;;;4991291;28;20218;-69
2022/04/25 05:39:09;;;;;;;6.63;4.55;;;7.50;99.90;;;;;;4991110;28;20232;-68
2022/04/25 05:41:40;;;;;;;6.07;5.15;;;7.50;99.90;;;;;;4983984;28;20819;-69
2022/04/25 05:44:10;;;;;;;5.65;4.95;;;7.50;99.90;;;;;;4991290;28;20295;-68
2022/04/25 05:46:37;;;;;;;7.78;4.63;;;7.50;99.90;;;;;;4990342;28;20208;-68
2022/04/25 05:52:02;;;;;;;5.50;5.00;;;7.60;99.90;;;;;;4990652;28;20226;-69
2022/04/25 05:54:29;;;;;;;6.45;4.80;;;7.70;99.90;;;;;;4991110;28;20298;-69
2022/04/25 05:56:57;;;;;;;7.45;5.18;;;7.70;99.90;;;;;;4991237;28;20338;-68
2022/04/25 05:59:24;;;;;;;5.05;4.60;;;7.70;99.90;;;;;;4991053;28;20206;-69
2022/04/25 06:01:53;;;;;;;3.95;3.63;;;7.70;99.90;;;;;;4989651;28;20235;-70
2022/04/25 06:04:20;;;;;;;4.45;4.15;;;7.70;99.90;;;;;;4990929;28;20211;-68
2022/04/25 06:06:46;;;;;;;6.88;4.43;;;7.80;99.90;;;;;;4990995;28;20215;-68
2022/04/25 06:09:15;;;;;;;3.85;3.60;;;7.90;99.90;;;;;;4991036;28;20663;-68
2022/04/25 06:11:42;;;;;;;5.00;4.00;;;7.80;99.90;;;;;;4990965;28;20259;-68
2022/04/25 06:14:10;;;;;;;4.50;4.10;;;7.80;99.90;;;;;;4994664;28;20263;-69
2022/04/25 06:16:37;;;;;;;4.15;3.85;;;7.90;99.90;;;;;;4993582;28;20208;-68
2022/04/25 06:19:03;;;;;;;4.63;4.20;;;7.90;99.90;;;;;;4994546;28;20214;-69
2022/04/25 06:21:30;;;;;;;3.75;3.35;;;8.00;99.90;;;;;;4993373;28;20240;-69
2022/04/25 06:23:59;;;;;;;3.85;3.60;;;7.90;99.90;;;;;;4994291;28;20676;-69
2022/04/25 06:26:26;;;;;;;4.55;3.38;;;8.00;99.90;;;;;;4994607;28;20234;-69
2022/04/25 06:28:53;;;;;;;4.70;4.35;;;8.10;99.90;;;;;;4994531;28;20315;-68
2022/04/25 06:31:22;;;;;;;6.85;4.50;;;8.10;99.90;;;;;;4993061;28;20613;-69
2022/04/25 06:33:48;;;;;;;4.85;4.50;;;8.20;99.90;;;;;;4994120;28;20208;-68
2022/04/25 06:36:15;;;;;;;3.70;3.50;;;8.20;99.90;;;;;;4994468;28;20247;-69
2022/04/25 06:38:42;;;;;;;3.40;3.20;;;8.10;99.90;;;;;;4994636;28;20558;-69
2022/04/25 06:41:08;;;;;;;3.67;3.33;;;8.10;99.90;;;;;;4993733;28;20228;-69
2022/04/25 06:43:36;;;;;;;5.43;4.93;;;8.00;99.90;;;;;;4994466;28;20258;-69
2022/04/25 06:46:03;;;;;;;4.45;3.53;;;8.00;99.90;;;;;;4993296;28;20366;-69
2022/04/25 06:48:31;;;;;;;4.47;4.07;;;8.00;99.90;;;;;;4993974;28;20282;-69
2022/04/25 06:50:57;;;;;;;2.75;2.50;;;8.20;99.90;;;;;;4993090;28;20689;-69
2022/04/25 06:53:24;;;;;;;3.80;3.50;;;8.20;99.90;;;;;;4993957;28;20212;-69
2022/04/25 06:55:51;;;;;;;4.53;3.55;;;8.20;99.90;;;;;;4994199;28;20241;-69
2022/04/25 06:58:17;;;;;;;4.00;3.70;;;8.30;99.90;;;;;;4994174;28;20207;-69
2022/04/25 07:00:45;;;;;;;5.53;3.45;;;8.50;99.90;;;;;;4992509;28;20239;-69
2022/04/25 07:03:11;;;;;;;3.38;3.10;;;8.50;99.90;;;;;;4994302;28;20243;-69
2022/04/25 07:05:42;;;;;;;3.42;3.30;;;8.60;99.90;;;;;;4993816;28;20704;-69
2022/04/25 07:08:08;;;;;;;3.85;3.65;;;8.60;99.90;;;;;;4994039;28;20243;-70
2022/04/25 07:10:35;;;;;;;4.13;3.65;;;8.70;99.90;;;;;;4990821;28;20585;-69
2022/04/25 07:13:01;;;;;;;5.38;3.67;;;8.80;99.90;;;;;;4994078;28;20212;-68
2022/04/25 07:15:29;;;;;;;3.67;3.47;;;8.90;99.90;;;;;;4992534;28;20212;-68
2022/04/25 07:17:56;;;;;;;3.72;3.47;;;9.00;99.90;;;;;;4994049;28;20479;-71
2022/04/25 07:20:23;;;;;;;3.25;3.10;;;9.10;99.90;;;;;;4993217;28;20243;-69
2022/04/25 07:31:04;;;;;;;3.37;3.17;;;10.60;99.90;;;;;;4992428;28;20715;-70
2022/04/25 07:33:30;;;;;;;3.10;2.90;;;11.30;99.90;;;;;;4993093;28;20548;-70
2022/04/25 07:35:57;;;;;;;3.53;3.30;;;12.00;99.90;;;;;;4993749;28;20469;-70
2022/04/25 07:38:25;;;;;;;3.00;2.90;;;12.10;99.90;;;;;;4993624;28;20463;-70
2022/04/25 07:40:52;;;;;;;3.17;2.97;;;11.60;99.90;;;;;;4989684;28;20589;-71
2022/04/25 07:43:18;;;;;;;6.20;2.70;;;11.10;99.90;;;;;;4990308;28;20470;-71
2022/04/25 07:45:45;;;;;;;3.33;3.10;;;10.90;99.90;;;;;;4992151;28;20533;-70
2022/04/25 07:48:12;;;;;;;3.13;3.03;;;10.50;99.90;;;;;;4992728;28;20266;-70
2022/04/25 07:50:39;;;;;;;4.35;3.97;;;10.40;99.90;;;;;;4992408;28;20279;-70
2022/04/25 07:53:06;;;;;;;4.18;3.88;;;10.10;99.90;;;;;;4992699;28;20218;-70
2022/04/25 07:55:34;;;;;;;4.05;3.70;;;10.00;99.90;;;;;;4992899;28;20208;-71
2022/04/25 07:58:01;;;;;;;4.95;3.53;;;9.80;99.90;;;;;;4992830;28;20282;-70
2022/04/25 08:00:28;;;;;;;3.47;3.00;;;9.80;99.90;;;;;;4991415;28;20627;-70
2022/04/25 08:02:54;;;;;;;3.42;3.20;;;9.90;99.90;;;;;;4992683;28;20222;-70
2022/04/25 08:05:21;;;;;;;3.55;3.30;;;9.90;99.90;;;;;;4992626;28;20204;-70
2022/04/25 08:07:48;;;;;;;3.60;3.30;;;10.00;99.90;;;;;;4992478;28;20669;-70
2022/04/25 08:10:14;;;;;;;3.60;3.30;;;10.00;99.90;;;;;;4991881;28;20236;-71
2022/04/25 08:18:13;;;;;;;5.60;3.55;;;9.80;99.90;;;;;;4992356;28;20551;-70
2022/04/25 08:20:40;;;;;;;3.58;3.25;;;10.00;99.90;;;;;;4991739;28;20574;-70
2022/04/25 08:23:10;;;;;;;3.40;3.15;;;10.10;99.90;;;;;;4992505;28;20204;-70
2022/04/25 08:25:36;;;;;;;3.53;3.10;;;10.20;99.90;;;;;;4992243;28;20262;-70
2022/04/25 08:28:06;;;;;;;3.70;2.53;;;10.40;99.90;;;;;;4992481;28;20203;-71
2022/04/25 08:30:32;;;;;;;3.75;3.13;;;10.40;99.90;;;;;;4987608;28;20756;-70
2022/04/25 08:33:01;;;;;;;4.47;3.85;;;10.50;99.90;;;;;;4992084;28;20691;-71
2022/04/25 08:35:28;;;;;;;4.40;3.45;;;10.50;99.90;;;;;;4991463;28;20244;-69
2022/04/25 08:37:54;;;;;;;3.08;2.75;;;10.60;99.90;;;;;;4991899;28;20215;-70
2022/04/25 08:40:22;;;;;;;2.78;2.65;;;10.70;99.90;;;;;;4991318;28;20230;-70
2022/04/25 08:42:49;;;;;;;2.75;2.63;;;10.60;99.90;;;;;;4992326;28;20216;-70
2022/04/25 08:45:16;;;;;;;2.50;2.38;;;10.80;99.90;;;;;;4991808;28;20723;-70
2022/04/25 08:47:48;;;;;;;3.17;2.88;;;10.90;99.90;;;;;;4992176;28;20254;-70
2022/04/25 08:50:17;;;;;;;5.70;3.28;;;11.00;99.90;;;;;;4991208;28;20224;-70
2022/04/25 08:52:44;;;;;;;3.25;2.95;;;11.10;99.90;;;;;;4991978;28;20212;-71
2022/04/25 08:55:12;;;;;;;2.25;2.05;;;11.20;99.90;;;;;;4991613;28;20208;-71
2022/04/25 08:57:39;;;;;;;2.90;2.70;;;11.30;99.90;;;;;;4991502;28;20219;-71
2022/04/25 09:00:08;;;;;;;3.13;2.65;;;11.20;99.90;;;;;;4990568;28;20223;-71
2022/04/25 09:02:38;;;;;;;2.70;2.60;;;11.30;99.90;;;;;;4991560;28;20720;-70
2022/04/25 09:05:05;;;;;;;3.75;3.00;;;11.40;99.90;;;;;;4991539;28;20247;-71
2022/04/25 09:07:32;;;;;;;2.67;2.47;;;11.60;99.90;;;;;;4991488;28;20808;-70
2022/04/25 09:09:59;;;;;;;2.65;2.47;;;11.60;99.90;;;;;;4988762;28;20248;-70
2022/04/25 09:12:25;;;;;;;2.92;2.75;;;11.60;99.90;;;;;;4991657;28;20223;-69
2022/04/25 09:14:52;;;;;;;2.65;2.58;;;11.70;99.90;;;;;;4990896;28;20254;-70
2022/04/25 09:17:19;;;;;;;3.22;3.00;;;11.80;99.90;;;;;;4991119;28;20262;-70
2022/04/25 09:19:47;;;;;;;5.60;2.90;;;11.90;99.90;;;;;;4990724;28;20204;-70
2022/04/25 09:22:30;;;;;;;3.97;3.55;;;11.90;99.90;;;;;;4991138;28;20235;-70
2022/04/25 09:25:04;;;;;;;3.33;2.88;;;12.00;99.90;;;;;;4991074;28;20703;-69
2022/04/25 09:27:31;;;;;;;3.03;2.80;;;12.10;99.90;;;;;;4991391;28;20207;-70
2022/04/25 09:30:12;;;;;;;2.65;2.25;;;12.10;99.90;;;;;;4990617;28;20282;-69
2022/04/25 09:32:39;;;;;;;3.13;2.83;;;12.20;99.90;;;;;;4991153;28;20606;-70
2022/04/25 09:35:29;;;;;;;2.13;2.13;;;12.20;99.90;;;;;;4990835;28;20470;-70
2022/04/25 09:37:57;;;;;;;3.10;2.90;;;12.40;99.90;;;;;;4991668;28;20208;-70
2022/04/25 09:40:25;;;;;;;3.13;2.90;;;12.40;99.90;;;;;;4990711;28;20588;-70
2022/04/25 09:43:07;;;;;;;2.80;2.70;;;12.50;99.90;;;;;;4991938;28;20470;-70
2022/04/25 09:45:35;;;;;;;2.87;2.67;;;12.60;99.90;;;;;;4990718;28;20463;-70
2022/04/25 09:48:02;;;;;;;3.03;2.83;;;12.60;99.90;;;;;;4995679;28;20482;-71
2022/04/25 09:50:30;;;;;;;3.13;2.93;;;12.60;99.90;;;;;;4994680;28;20561;-70
2022/04/25 09:52:59;;;;;;;4.30;2.60;;;12.50;99.90;;;;;;4995287;28;20469;-70
2022/04/25 09:55:27;;;;;;;3.27;2.97;;;12.70;99.90;;;;;;4995120;28;20517;-72
2022/04/25 09:57:54;;;;;;;3.07;2.83;;;12.80;99.90;;;;;;4994826;28;20463;-70
2022/04/25 10:00:33;;;;;;;2.77;2.57;;;12.90;99.90;;;;;;4985572;28;20466;-70
2022/04/25 10:03:00;;;;;;;2.50;2.40;;;13.00;99.90;;;;;;4995397;28;20459;-70
2022/04/25 10:05:39;;;;;;;2.60;2.50;;;13.10;99.90;;;;;;4994900;28;20462;-70
2022/04/25 10:08:07;;;;;;;2.80;2.60;;;13.20;99.90;;;;;;4995109;28;20794;-70
2022/04/25 10:10:34;;;;;;;2.97;2.67;;;13.20;99.90;;;;;;4994080;28;20553;-71
2022/04/25 10:13:02;;;;;;;2.80;2.70;;;13.20;99.90;;;;;;4995298;28;20553;-70
2022/04/25 10:15:28;;;;;;;3.00;2.90;;;13.10;99.90;;;;;;4996809;23;21002;-69
2022/04/25 10:17:56;;;;;;;3.27;2.97;;;13.10;99.90;;;;;;4975415;28;20471;-69
2022/04/25 10:20:23;;;;;;;4.40;2.77;;;13.20;99.90;;;;;;4974702;28;20459;-67
2022/04/25 10:22:52;;;;;;;2.60;2.47;;;13.20;99.90;;;;;;4975191;28;20459;-68
2022/04/25 10:25:18;;;;;;;5.03;3.20;;;13.40;99.90;;;;;;4974881;28;20625;-68
2022/04/25 10:27:47;;;;;;;5.70;3.13;;;13.40;99.90;;;;;;4975365;28;20830;-68
2022/04/25 10:30:17;;;;;;;2.63;2.43;;;13.50;99.90;;;;;;4970741;28;20646;-68
2022/04/25 10:32:44;;;;;;;2.47;2.37;;;13.60;99.90;;;;;;4979247;28;20482;-69
2022/04/25 10:35:15;;;;;;;3.63;3.33;;;13.70;99.90;;;;;;4994113;28;20483;-69
2022/04/25 10:37:44;;;;;;;2.90;2.70;;;13.60;99.90;;;;;;4994023;28;20470;-69
2022/04/25 10:40:14;;;;;;;2.73;2.53;;;13.70;99.90;;;;;;4993762;28;20561;-69
2022/04/25 10:46:02;;;;;;;3.13;3.03;;;14.00;99.90;;;;;;4992741;28;20470;-69
2022/04/25 10:48:29;;;;;;;4.90;3.70;;;14.10;99.90;;;;;;4994080;28;20886;-68
2022/04/25 10:51:10;;;;;;;3.20;2.70;;;14.20;99.90;;;;;;4993241;28;20494;-68
2022/04/25 10:54:00;;;;;;;3.10;3.00;;;14.40;99.90;;;;;;4993985;28;20466;-68
2022/04/25 10:56:29;;;;;;;2.70;2.60;;;14.40;99.90;;;;;;4993496;28;20470;-68
2022/04/25 10:59:21;;;;;;;3.93;3.63;;;14.30;99.90;;;;;;4993602;28;20502;-68
2022/04/25 11:01:48;;;;;;;3.10;2.93;;;14.30;99.90;;;;;;4992535;28;20463;-68
2022/04/25 11:04:15;;;;;;;3.90;3.70;;;14.30;99.90;;;;;;4993765;28;20462;-68
2022/04/25 11:06:42;;;;;;;3.13;2.93;;;14.40;99.90;;;;;;4994312;28;20982;-69
2022/04/25 11:09:09;;;;;;;3.20;2.90;;;14.50;99.90;;;;;;4995080;28;20529;-69
2022/04/25 11:11:48;;;;;;;3.07;2.87;;;14.60;99.90;;;;;;4994611;28;20466;-68
2022/04/25 11:14:16;;;;;;;3.37;3.00;;;14.60;99.90;;;;;;4994785;28;20462;-68
2022/04/25 11:16:44;;;;;;;3.47;3.10;;;14.80;99.90;;;;;;4992529;28;21015;-68
2022/04/25 11:19:16;;;;;;;3.30;3.10;;;14.80;99.90;;;;;;4992681;28;20525;-68
2022/04/25 11:21:49;;;;;;;2.73;2.63;;;14.80;99.90;;;;;;4965985;28;20780;-67
2022/04/25 11:24:29;;;;;;;5.07;4.67;;;14.90;99.90;;;;;;4974229;28;20850;-67
2022/04/25 11:27:00;;;;;;;3.40;3.20;;;15.00;99.90;;;;;;4973533;28;20558;-68
2022/04/25 11:29:28;;;;;;;3.40;3.17;;;14.90;99.90;;;;;;4974206;28;20468;-67
2022/04/25 11:32:32;;;;;;;4.60;4.20;;;14.80;99.90;;;;;;4972474;28;20459;-68
2022/04/25 11:35:00;;;;;;;2.70;2.60;;;14.80;99.90;;;;;;4973700;28;20538;-68
2022/04/25 11:37:28;;;;;;;3.23;3.13;;;14.80;99.90;;;;;;4973469;28;20547;-67
2022/04/25 11:39:57;;;;;;;3.90;3.70;;;14.90;99.90;;;;;;4972714;28;20538;-67
2022/04/25 11:42:27;;;;;;;4.97;4.57;;;14.80;99.90;;;;;;4973187;28;20818;-67
2022/04/25 11:44:55;;;;;;;3.50;3.40;;;14.80;99.90;;;;;;4973124;28;20550;-68
2022/04/25 11:47:22;;;;;;;3.30;3.00;;;14.80;99.90;;;;;;4972900;28;20503;-68
2022/04/25 11:49:56;;;;;;;3.13;3.00;;;14.90;99.90;;;;;;4972721;28;20518;-67
2022/04/25 11:52:23;;;;;;;3.17;3.07;;;14.90;99.90;;;;;;4973234;28;20944;-67
2022/04/25 11:54:50;;;;;;;3.67;3.37;;;14.90;99.90;;;;;;4972998;28;20992;-67
2022/04/25 11:57:17;;;;;;;3.53;3.33;;;14.90;99.90;;;;;;4973455;28;20464;-68
2022/04/25 11:59:44;;;;;;;2.77;2.67;;;14.90;99.90;;;;;;4964685;28;20483;-68
2022/04/25 12:02:11;;;;;;;3.57;3.27;;;15.10;99.90;;;;;;4972815;28;20539;-68
2022/04/25 12:04:39;;;;;;;3.23;3.10;;;15.20;99.90;;;;;;4973210;28;20490;-67
2022/04/25 12:07:06;;;;;;;2.90;2.80;;;15.20;99.90;;;;;;4972888;28;20474;-68
2022/04/25 12:15:38;;;;;;;5.97;3.90;;;15.10;99.90;;;;;;4971721;28;20567;-67
2022/04/25 12:18:19;;;;;;;3.10;3.00;;;15.30;99.90;;;;;;4973028;28;20472;-67
2022/04/25 12:20:49;;;;;;;5.27;3.77;;;15.30;99.90;;;;;;4972368;28;20491;-68
2022/04/25 12:23:23;;;;;;;3.27;3.17;;;15.30;99.90;;;;;;4972964;28;20468;-67
2022/04/25 12:25:50;;;;;;;2.63;2.53;;;15.30;99.90;;;;;;4972746;28;20491;-67
2022/04/25 12:28:18;;;;;;;3.43;3.20;;;15.30;99.90;;;;;;4972977;28;20791;-67
2022/04/25 12:30:49;;;;;;;7.37;3.13;;;15.40;99.90;;;;;;4972924;28;20463;-67
2022/04/25 12:33:17;;;;;;;3.10;3.00;;;15.40;99.90;;;;;;4992085;28;20558;-67
2022/04/25 12:35:45;;;;;;;3.50;3.30;;;15.50;99.90;;;;;;4992075;28;21013;-68
2022/04/25 12:38:49;;;;;;;3.10;3.00;;;15.50;99.90;;;;;;4992003;28;20546;-68
2022/04/25 12:41:21;;;;;;;3.70;3.10;;;15.60;99.90;;;;;;4981244;28;20545;-68
2022/04/25 12:43:49;;;;;;;3.73;3.43;;;15.70;99.90;;;;;;4992233;28;20510;-68
2022/04/25 12:46:19;;;;;;;3.10;3.00;;;15.70;99.90;;;;;;4990928;28;20494;-68
2022/04/25 12:48:59;;;;;;;2.80;2.70;;;15.70;99.90;;;;;;4991676;28;20458;-68
2022/04/25 12:51:30;;;;;;;3.93;3.67;;;15.70;99.90;;;;;;4991438;28;20876;-68
2022/04/25 12:53:57;;;;;;;3.53;3.27;;;15.70;99.90;;;;;;4991491;28;21020;-68
2022/04/25 12:56:25;;;;;;;3.33;3.13;;;15.70;99.90;;;;;;4991730;28;20944;-68
2022/04/25 12:58:51;;;;;;;3.10;2.90;;;15.80;99.90;;;;;;4991783;28;20463;-68
2022/04/25 13:01:28;;;;;;;4.83;3.57;;;15.80;99.90;;;;;;4989782;28;20483;-68
2022/04/25 13:04:10;;;;;;;2.90;2.77;;;15.60;99.90;;;;;;4991589;28;20517;-68
2022/04/25 13:06:37;;;;;;;2.60;2.50;;;15.40;99.90;;;;;;4991631;28;20470;-67
2022/04/25 13:09:05;;;;;;;4.30;2.80;;;15.30;99.90;;;;;;4991598;28;20875;-67
2022/04/25 13:11:32;;;;;;;3.37;3.17;;;15.20;99.90;;;;;;4991093;28;20463;-67
2022/04/25 13:13:59;;;;;;;3.00;2.90;;;15.20;99.90;;;;;;4991594;28;20779;-68
2022/04/25 13:16:27;;;;;;;2.80;2.70;;;15.30;99.90;;;;;;4990527;28;20984;-68
2022/04/25 13:18:53;;;;;;;2.83;2.73;;;15.50;99.90;;;;;;4991409;28;20537;-68
2022/04/25 13:21:20;;;;;;;3.03;2.93;;;15.60;99.90;;;;;;4972949;28;21019;-68
2022/04/25 13:23:49;;;;;;;3.63;3.33;;;15.70;99.90;;;;;;4971822;28;20534;-69
2022/04/25 13:26:16;;;;;;;3.03;2.93;;;15.90;99.90;;;;;;4971878;28;20901;-68
2022/04/25 13:28:43;;;;;;;3.30;3.10;;;15.90;99.90;;;;;;4972096;28;20550;-68
2022/04/25 13:31:10;;;;;;;3.50;2.90;;;15.90;99.90;;;;;;4970655;28;20881;-68
2022/04/25 13:33:38;;;;;;;2.93;2.90;;;15.70;99.90;;;;;;4972108;28;20522;-69
2022/04/25 13:36:06;;;;;;;3.40;3.10;;;15.60;99.90;;;;;;4971489;28;20838;-68
2022/04/25 13:38:32;;;;;;;3.27;3.17;;;15.60;99.90;;;;;;4971767;28;20466;-68
2022/04/25 13:41:00;;;;;;;2.40;2.30;;;15.50;99.90;;;;;;4970875;28;20514;-69
2022/04/25 13:43:26;;;;;;;3.33;3.13;;;15.50;99.90;;;;;;4971931;28;20555;-69
2022/04/25 13:45:54;;;;;;;3.87;3.60;;;15.50;99.90;;;;;;4970775;28;20492;-68
2022/04/25 13:48:21;;;;;;;3.50;3.23;;;15.60;99.90;;;;;;4971619;28;20503;-68
2022/04/25 13:50:49;;;;;;;2.77;2.67;;;15.70;99.90;;;;;;4971060;28;20859;-69
2022/04/25 13:53:16;;;;;;;3.17;2.70;;;16.00;99.90;;;;;;4971580;28;20838;-68
2022/04/25 13:55:44;;;;;;;4.00;3.33;;;16.20;99.90;;;;;;4971349;28;20491;-68
2022/04/25 13:58:11;;;;;;;3.93;3.73;;;16.30;99.90;;;;;;4971805;28;20467;-67
2022/04/25 14:00:37;;;;;;;3.57;3.47;;;16.20;99.90;;;;;;4965492;28;20896;-67
2022/04/25 14:03:08;;;;;;;3.37;3.10;;;16.10;99.90;;;;;;4991169;28;20467;-67
2022/04/25 14:05:36;;;;;;;4.10;3.77;;;16.20;99.90;;;;;;4990719;28;20497;-67
2022/04/25 14:08:05;;;;;;;3.53;3.33;;;16.30;99.90;;;;;;4990770;28;20470;-67
2022/04/25 14:10:32;;;;;;;4.07;3.77;;;16.30;99.90;;;;;;4990457;28;20467;-67
2022/04/25 14:12:59;;;;;;;4.27;3.83;;;16.30;99.90;;;;;;4991185;28;20467;-67
2022/04/25 14:15:26;;;;;;;4.00;3.80;;;16.20;99.90;;;;;;4989984;28;20502;-67
2022/04/25 14:17:53;;;;;;;3.50;3.30;;;16.20;99.90;;;;;;4990770;28;20467;-67
2022/04/25 14:20:19;;;;;;;3.47;3.37;;;16.10;99.90;;;;;;4989981;28;20474;-68
2022/04/25 14:22:46;;;;;;;3.70;3.50;;;16.00;99.90;;;;;;4990824;28;20470;-68
2022/04/25 14:25:15;;;;;;;3.43;3.23;;;15.80;99.90;;;;;;4990749;28;20482;-68
2022/04/25 14:27:42;;;;;;;3.00;2.90;;;15.90;99.90;;;;;;4990945;28;20462;-68
2022/04/25 14:30:10;;;;;;;3.67;3.03;;;16.00;99.90;;;;;;4984932;28;20978;-68
2022/04/25 14:32:37;;;;;;;6.43;2.77;;;15.90;99.90;;;;;;4990757;28;20466;-68
2022/04/25 14:35:04;;;;;;;3.50;3.30;;;15.90;99.90;;;;;;4993843;28;20486;-68
2022/04/25 14:37:31;;;;;;;3.70;3.47;;;15.80;99.90;;;;;;4994063;28;20611;-69
2022/04/25 14:39:57;;;;;;;3.53;3.33;;;15.60;99.90;;;;;;4993600;28;20466;-68
2022/04/25 14:42:25;;;;;;;2.67;2.57;;;15.60;99.90;;;;;;4993944;28;20537;-69
2022/04/25 14:44:52;;;;;;;3.40;3.10;;;15.60;99.90;;;;;;4993750;28;20562;-69
2022/04/25 14:47:18;;;;;;;3.10;2.90;;;15.60;99.90;;;;;;4993955;28;20882;-69
2022/04/25 14:55:13;;;;;;;2.93;2.83;;;15.70;99.90;;;;;;4993793;28;20480;-68
2022/04/25 14:57:41;;;;;;;2.33;2.33;;;15.70;99.90;;;;;;4994295;28;20521;-69
2022/04/25 15:00:09;;;;;;;2.70;2.50;;;15.80;99.90;;;;;;4993840;28;21008;-68
2022/04/25 15:02:36;;;;;;;2.40;2.40;;;15.80;99.90;;;;;;4999022;28;20517;-69
2022/04/25 15:05:03;;;;;;;2.27;2.27;;;15.90;99.90;;;;;;4994722;28;20483;-69
2022/04/25 15:07:29;;;;;;;3.10;2.87;;;15.90;99.90;;;;;;4997353;28;20494;-69
2022/04/25 15:09:56;;;;;;;2.60;2.50;;;15.80;99.90;;;;;;5012410;28;20466;-69
2022/04/25 15:12:22;;;;;;;2.70;2.50;;;15.80;99.90;;;;;;5010763;28;20964;-69
2022/04/25 15:14:50;;;;;;;2.97;2.87;;;15.80;99.90;;;;;;5003760;28;20553;-69
2022/04/25 15:17:17;;;;;;;3.10;3.00;;;15.80;99.90;;;;;;5003639;28;20502;-69
2022/04/25 15:19:44;;;;;;;2.70;2.60;;;15.70;99.90;;;;;;4993943;28;20537;-69
2022/04/25 15:22:10;;;;;;;2.43;2.33;;;15.70;99.90;;;;;;4999360;28;20479;-68
2022/04/25 15:24:37;;;;;;;2.73;2.23;;;15.80;99.90;;;;;;4995318;28;20501;-69
2022/04/25 15:27:04;;;;;;;1.77;1.77;;;15.70;99.90;;;;;;4994969;28;20471;-68
2022/04/25 15:29:31;;;;;;;2.50;2.40;;;15.70;99.90;;;;;;4994713;28;20479;-69
2022/04/25 15:31:59;;;;;;;3.70;2.33;;;15.70;99.90;;;;;;4993576;28;20842;-68
2022/04/25 15:34:26;;;;;;;2.30;2.20;;;15.70;99.90;;;;;;4993213;28;20483;-68
2022/04/25 15:36:52;;;;;;;2.23;2.13;;;15.80;99.90;;;;;;4993102;28;20474;-68
2022/04/25 15:39:19;;;;;;;1.93;1.93;;;15.90;99.90;;;;;;4993051;28;20466;-69
2022/04/25 15:41:46;;;;;;;2.53;2.43;;;15.90;99.90;;;;;;4992246;28;20486;-69
2022/04/25 15:44:12;;;;;;;2.30;2.30;;;15.90;99.90;;;;;;4992979;28;20458;-68
2022/04/25 15:46:40;;;;;;;2.10;2.00;;;15.90;99.90;;;;;;4992223;28;20498;-68
2022/04/25 15:49:07;;;;;;;2.70;2.60;;;15.90;99.90;;;;;;4992460;28;21029;-68
2022/04/25 15:51:34;;;;;;;2.60;2.50;;;15.90;99.90;;;;;;4992131;28;20536;-68
2022/04/25 15:59:31;;;;;;;1.80;1.80;;;15.60;99.90;;;;;;4974981;28;20531;-68
2022/04/25 16:01:57;;;;;;;2.23;2.10;;;15.60;99.90;;;;;;4971968;28;20487;-68
2022/04/25 16:04:25;;;;;;;2.10;2.10;;;15.60;99.90;;;;;;4972968;28;20488;-68
2022/04/25 16:06:52;;;;;;;2.20;2.20;;;15.50;99.90;;;;;;4972784;28;21037;-69
2022/04/25 16:09:19;;;;;;;2.30;2.20;;;15.40;99.90;;;;;;4973923;28;20471;-68
2022/04/25 16:11:46;;;;;;;2.10;2.00;;;15.40;99.90;;;;;;4972285;28;20464;-68
2022/04/25 16:14:13;;;;;;;2.10;2.10;;;15.50;99.90;;;;;;4972734;28;20472;-69
2022/04/25 16:16:39;;;;;;;1.83;1.83;;;15.40;99.60;;;;;;4972569;28;20502;-69
2022/04/25 16:19:06;;;;;;;2.63;2.43;;;15.40;99.80;;;;;;4972895;28;20468;-69
2022/04/25 16:21:34;;;;;;;2.27;2.17;;;15.40;99.50;;;;;;4972049;28;21170;-68
2022/04/25 16:24:00;;;;;;;1.93;1.93;;;15.30;99.60;;;;;;4972901;28;20468;-68
2022/04/25 16:26:27;;;;;;;1.80;1.80;;;15.30;99.80;;;;;;4972749;28;20487;-68
2022/04/25 16:28:53;;;;;;;1.73;1.67;;;15.30;99.90;;;;;;4972805;28;20468;-69
2022/04/25 16:31:20;;;;;;;2.00;1.90;;;15.30;99.70;;;;;;4971175;28;20479;-68
2022/04/25 16:33:47;;;;;;;1.57;1.57;;;15.20;99.30;;;;;;4972572;28;20540;-69
2022/04/25 16:36:13;;;;;;;1.80;1.80;;;15.10;99.90;;;;;;4972839;28;20495;-68
2022/04/25 16:38:41;;;;;;;1.90;1.90;;;15.10;99.70;;;;;;4972814;28;20464;-69
2022/04/25 16:41:09;;;;;;;1.87;1.73;;;15.10;99.70;;;;;;4971779;28;20526;-68
2022/04/25 16:43:37;;;;;;;2.40;2.20;;;15.00;99.90;;;;;;4972362;28;20472;-68
2022/04/25 16:46:04;;;;;;;8.70;2.20;;;15.00;99.90;;;;;;4971453;28;20542;-69
2022/04/25 16:48:31;;;;;;;2.70;2.47;;;14.90;99.90;;;;;;4969645;28;20535;-69
2022/04/25 16:50:58;;;;;;;4.70;1.80;;;14.90;99.90;;;;;;4991044;28;20459;-69
2022/04/25 16:53:24;;;;;;;1.63;1.60;;;14.80;99.90;;;;;;4991658;28;20467;-69
2022/04/25 16:55:52;;;;;;;5.10;1.80;;;14.70;99.90;;;;;;4990928;28;20494;-69
2022/04/25 16:58:19;;;;;;;3.17;2.90;;;14.60;99.90;;;;;;4991558;28;20467;-69
2022/04/25 17:00:46;;;;;;;2.83;2.63;;;14.60;99.90;;;;;;4989953;28;20467;-69
2022/04/25 17:03:12;;;;;;;2.03;1.80;;;14.50;99.90;;;;;;4991649;28;20561;-69
2022/04/25 17:05:39;;;;;;;1.70;1.70;;;14.50;99.90;;;;;;4991192;28;20524;-69
2022/04/25 17:08:06;;;;;;;2.97;2.37;;;14.40;99.90;;;;;;4991293;28;20471;-69
2022/04/25 17:10:33;;;;;;;3.03;1.90;;;14.30;99.90;;;;;;4990661;28;20475;-69
2022/04/25 17:13:01;;;;;;;2.20;2.20;;;14.30;99.90;;;;;;4991250;28;20459;-69
2022/04/25 17:15:27;;;;;;;1.93;1.93;;;14.20;99.90;;;;;;4990127;28;20498;-69
2022/04/25 17:17:54;;;;;;;2.13;2.03;;;14.20;99.90;;;;;;4991226;28;20525;-69
2022/04/25 17:20:21;;;;;;;1.80;1.80;;;14.10;99.90;;;;;;4973643;28;20524;-69
2022/04/25 17:22:47;;;;;;;1.50;1.50;;;14.10;99.90;;;;;;4979717;28;20542;-69
2022/04/25 17:25:14;;;;;;;2.23;2.13;;;14.00;99.90;;;;;;4971541;28;20495;-69
2022/04/25 17:27:40;;;;;;;2.53;2.43;;;14.00;99.90;;;;;;4971605;28;20471;-69
2022/04/25 17:30:10;;;;;;;1.80;1.80;;;13.90;99.90;;;;;;4970407;28;20530;-69
2022/04/25 17:35:32;;;;;;;1.97;1.97;;;13.70;99.90;;;;;;4971522;28;20471;-69
